Anna, OH

5:14 PM EST on November 23, 2014 (GMT -0500)
Country - Front Yard | Change Station
CLOSE
Current Station
Personal Weather Station
Location: Sidney, OH
Elevation: 1020 ft
Nearby Weather Stations
Active Advisory: Wind Advisory

Elev 1020 ft 40.37 °N, 84.17 °W | Updated 12 minutes ago

Overcast
Overcast
55.2 °F
Feels Like 55.2 °F
N
5.8
Wind Variable Wind from SE

Today
High -- | Low -- °F
--% Chance of Precip.
Yesterday
High -- | Low -- °F
Precip. -- in
7:32 AM 5:14 PM
New Moon, 2% visible
Pressure 29.62 in
Visibility 10.0 miles
Clouds Scattered Clouds 5500 ft
Dew Point 46 °F
Humidity 72%
Rainfall 0.16 in
Snow Depth Not available.
UV 0 out of 12
Pollen .10 out of 12
Air Quality Not available.
Flu Activity Not available.
METAR KEDJ 232150Z AUTO 13011G15KT 10SM SCT055 14/06 A2962 RMK AO1

More Conditions Fewer Conditions

Pressure 29.62 in
Visibility 10.0 miles
Clouds Scattered Clouds 5500 ft
Dew Point 46 °F
Humidity 72%
Rainfall 0.16 in
Snow Depth Not available.
UV 0 out of 12
Pollen .10 out of 12
Air Quality Not available.
Flu Activity Not available.
METAR KEDJ 232150Z AUTO 13011G15KT 10SM SCT055 14/06 A2962 RMK AO1

More Conditions Fewer Conditions

10-Day Weather Forecast

Almanac

Astronomy

Nov. 23, 2014 Rise Set
Actual Time
Civil Twilight
Nautical Twilight
Astronomical Twilight
Moon
Length of Visible Light
Length of Day
Tomorrow will be .
, % of the Moon is Illuminated

Today's Extremes

State Highs State Lows

Community

WunderPhotos

Upload Photos

1,773,183 photos uploaded!

WunderBlogs® & News

Nearby

Air Quality

  Air Quality AQ Index Pollutant
Not available.

Snow Depth

Station Depth Elevation

Earthquake Activity

City Distance Mag. Time & Date
Minimum magnitude displayed is 2.5.

Coastal Water Temperatures

Place Temperature

Nearby Weather Stations